Time;durP1;ratioP1;P1;durP2;ratioP2;P2;SDS_P1;SDS_P2;PMS_P1;PMS_P2;Temp;Humidity;BMP_temperature;BMP_pressure;BME280_temperature;BME280_humidity;BME280_pressure;Samples;Min_cycle;Max_cycle;Signal;HPM_P1;HPM_P2
2024/01/31 00:01:47;;;;;;;9.83;7.60;;;;;;;4.67;100.00;98261.06;5112730;28;20243;-57
2024/01/31 00:04:14;;;;;;;8.17;7.30;;;;;;;4.79;100.00;98259.66;5113241;28;20209;-58
2024/01/31 00:06:42;;;;;;;8.50;7.03;;;;;;;4.83;100.00;98269.09;5113017;28;20211;-56
2024/01/31 00:09:09;;;;;;;9.77;7.67;;;;;;;4.77;100.00;98264.97;5113798;28;20219;-57
2024/01/31 00:11:36;;;;;;;8.83;7.73;;;;;;;4.86;100.00;98264.56;5113387;28;20249;-58
2024/01/31 00:14:06;;;;;;;10.10;8.73;;;;;;;4.91;100.00;98265.22;5112917;28;20359;-57
2024/01/31 00:16:33;;;;;;;10.47;7.77;;;;;;;4.99;100.00;98275.38;5112687;28;20676;-57
2024/01/31 00:18:59;;;;;;;9.90;8.23;;;;;;;4.98;100.00;98266.66;5112443;28;20251;-57
2024/01/31 00:21:26;;;;;;;9.53;7.90;;;;;;;5.10;100.00;98264.41;5112291;28;20193;-57
2024/01/31 00:23:54;;;;;;;10.33;7.53;;;;;;;5.17;100.00;98264.03;5112147;28;20209;-57
2024/01/31 00:26:22;;;;;;;8.97;8.07;;;;;;;5.18;100.00;98251.75;5112636;28;20211;-57
2024/01/31 00:28:49;;;;;;;10.47;8.03;;;;;;;5.15;100.00;98257.16;5112482;28;20193;-57
2024/01/31 00:31:15;;;;;;;10.40;7.90;;;;;;;5.14;100.00;98271.16;5112186;28;20215;-57
2024/01/31 00:33:42;;;;;;;9.10;8.20;;;;;;;5.25;100.00;98261.03;5112456;27;20219;-57
2024/01/31 00:36:08;;;;;;;9.97;8.83;;;;;;;5.29;100.00;98265.22;5113659;28;20511;-58
2024/01/31 00:38:35;;;;;;;9.13;8.17;;;;;;;5.35;100.00;98273.66;5124664;28;20235;-57
2024/01/31 00:41:07;;;;;;;9.00;7.70;;;;;;;5.41;100.00;98265.53;5123344;28;20599;-57
2024/01/31 00:43:34;;;;;;;8.93;8.03;;;;;;;5.43;100.00;98263.66;5124692;27;20231;-57
2024/01/31 00:46:03;;;;;;;10.60;9.13;;;;;;;5.37;100.00;98257.88;5119844;28;20287;-56
2024/01/31 00:48:32;;;;;;;8.27;7.47;;;;;;;5.44;100.00;98264.53;5112841;28;20201;-57
2024/01/31 00:50:58;;;;;;;8.77;7.90;;;;;;;5.43;100.00;98268.06;5112130;28;20201;-57
2024/01/31 00:53:25;;;;;;;9.10;8.10;;;;;;;5.41;100.00;98264.66;5111858;28;20205;-57
2024/01/31 00:55:51;;;;;;;10.13;7.37;;;;;;;5.34;100.00;98265.88;5111312;28;20212;-57
2024/01/31 00:58:19;;;;;;;9.07;7.93;;;;;;;5.23;100.00;98268.16;5112438;28;20213;-57
2024/01/31 01:00:46;;;;;;;9.70;7.80;;;;;;;5.16;100.00;98269.34;5111084;28;20225;-57
2024/01/31 01:03:12;;;;;;;8.70;7.67;;;;;;;5.22;100.00;98276.94;5111965;28;20203;-57
2024/01/31 01:05:39;;;;;;;11.73;7.80;;;;;;;5.17;100.00;98281.56;5111829;27;20207;-57
2024/01/31 01:08:07;;;;;;;10.27;8.03;;;;;;;5.00;100.00;98282.28;5111883;28;20199;-57
2024/01/31 01:10:33;;;;;;;9.93;8.07;;;;;;;5.06;100.00;98275.94;5111207;27;20211;-56
2024/01/31 01:13:01;;;;;;;8.80;7.80;;;;;;;5.03;100.00;98277.75;5111923;28;20600;-57
2024/01/31 01:15:31;;;;;;;9.13;8.07;;;;;;;5.05;100.00;98268.97;5110899;28;20232;-57
2024/01/31 01:17:57;;;;;;;8.13;7.30;;;;;;;5.01;100.00;98266.50;5111994;28;20193;-57
2024/01/31 01:20:24;;;;;;;9.57;7.23;;;;;;;4.80;100.00;98259.59;5111136;28;20193;-58
2024/01/31 01:22:52;;;;;;;8.83;7.13;;;;;;;4.84;100.00;98274.28;5111586;28;20209;-57
2024/01/31 01:25:19;;;;;;;9.27;7.67;;;;;;;4.90;100.00;98275.75;5110811;28;20207;-58
2024/01/31 01:27:50;;;;;;;8.53;7.63;;;;;;;4.85;100.00;98275.97;5111373;28;20205;-57
2024/01/31 01:30:17;;;;;;;10.77;7.50;;;;;;;4.81;100.00;98271.78;5111461;28;20225;-57
2024/01/31 01:32:45;;;;;;;11.10;7.77;;;;;;;4.86;100.00;98272.44;5111294;28;20193;-57
2024/01/31 01:35:13;;;;;;;9.63;7.33;;;;;;;4.73;100.00;98276.53;5110989;27;20212;-57
2024/01/31 01:37:40;;;;;;;8.90;7.50;;;;;;;4.71;100.00;98273.09;5111409;28;20201;-58
2024/01/31 01:40:07;;;;;;;10.30;7.40;;;;;;;4.83;100.00;98282.19;5110901;28;20552;-58
2024/01/31 01:42:38;;;;;;;10.10;7.73;;;;;;;4.82;100.00;98275.25;5110561;28;20197;-57
2024/01/31 01:45:05;;;;;;;8.37;7.43;;;;;;;4.73;100.00;98275.66;5110942;28;20213;-58
2024/01/31 01:47:34;;;;;;;8.60;7.80;;;;;;;4.75;100.00;98274.66;5111320;28;20536;-58
2024/01/31 01:50:03;;;;;;;8.30;7.30;;;;;;;4.85;100.00;98268.09;5110401;28;20688;-57
2024/01/31 01:52:31;;;;;;;9.37;7.40;;;;;;;4.72;100.00;98266.09;5110544;28;20613;-57
2024/01/31 01:54:58;;;;;;;10.07;7.73;;;;;;;4.78;100.00;98266.66;5110734;28;20225;-58
2024/01/31 01:57:25;;;;;;;8.30;7.50;;;;;;;4.85;100.00;98262.03;5110940;28;20627;-58
2024/01/31 01:59:53;;;;;;;9.63;7.37;;;;;;;4.72;100.00;98269.56;5113420;28;20227;-58
2024/01/31 02:02:19;;;;;;;7.73;6.93;;;;;;;4.71;100.00;98264.41;5121419;28;20276;-58
2024/01/31 02:04:48;;;;;;;8.10;7.30;;;;;;;4.78;100.00;98264.03;5115366;28;20304;-58
2024/01/31 02:07:20;;;;;;;10.67;7.23;;;;;;;4.77;100.00;98272.00;5115797;28;20287;-57
2024/01/31 02:09:47;;;;;;;7.83;7.13;;;;;;;4.83;100.00;98266.47;5115055;28;20189;-58
2024/01/31 02:12:14;;;;;;;8.00;7.20;;;;;;;4.76;100.00;98271.13;5114639;27;20237;-57
2024/01/31 02:14:40;;;;;;;7.90;7.10;;;;;;;4.73;100.00;98275.66;5114881;28;20215;-57
2024/01/31 02:17:07;;;;;;;8.13;7.13;;;;;;;4.78;100.00;98271.91;5115187;28;20203;-57
2024/01/31 02:19:33;;;;;;;7.90;6.90;;;;;;;4.85;100.00;98270.72;5114948;28;20228;-58
2024/01/31 02:22:03;;;;;;;9.10;7.17;;;;;;;4.82;100.00;98270.00;5114096;28;20627;-57
2024/01/31 02:24:31;;;;;;;9.23;7.10;;;;;;;4.77;100.00;98267.59;5114590;28;20209;-57
2024/01/31 02:26:57;;;;;;;8.00;6.30;;;;;;;4.80;100.00;98275.31;5114416;28;20209;-57
2024/01/31 02:29:24;;;;;;;8.50;6.53;;;;;;;4.84;100.00;98276.03;5113404;28;20634;-58
2024/01/31 02:31:51;;;;;;;7.57;6.87;;;;;;;4.86;100.00;98269.81;5114211;28;20205;-57
2024/01/31 02:34:18;;;;;;;9.03;6.90;;;;;;;4.93;100.00;98267.75;5114618;28;20203;-57
2024/01/31 02:36:45;;;;;;;8.50;6.43;;;;;;;4.85;100.00;98269.88;5114501;28;20209;-58
2024/01/31 02:39:11;;;;;;;7.10;6.43;;;;;;;4.67;100.00;98271.56;5114057;27;20231;-58
2024/01/31 02:41:39;;;;;;;8.00;7.00;;;;;;;4.62;100.00;98268.28;5114466;28;20217;-57
2024/01/31 02:44:06;;;;;;;8.60;6.63;;;;;;;4.56;100.00;98263.31;5114196;28;20201;-58
2024/01/31 02:46:32;;;;;;;8.90;6.83;;;;;;;4.70;100.00;98270.56;5113926;28;20205;-57
2024/01/31 02:49:00;;;;;;;6.93;6.20;;;;;;;4.64;100.00;98266.41;5114253;27;20201;-57
2024/01/31 02:51:26;;;;;;;8.43;6.40;;;;;;;4.71;100.00;98262.63;5114707;27;20293;-57
2024/01/31 02:53:53;;;;;;;6.87;5.70;;;;;;;4.70;100.00;98266.16;5113758;28;20209;-57
2024/01/31 02:56:20;;;;;;;7.23;6.13;;;;;;;4.63;100.00;98267.38;5113183;27;20216;-57
2024/01/31 02:58:48;;;;;;;6.93;6.23;;;;;;;4.55;100.00;98258.97;5112219;28;20316;-58
2024/01/31 03:01:14;;;;;;;6.97;5.93;;;;;;;4.48;100.00;98265.41;5113046;28;20225;-58
2024/01/31 03:03:41;;;;;;;6.33;5.73;;;;;;;4.49;100.00;98260.09;5112909;28;20193;-57
2024/01/31 03:06:07;;;;;;;6.83;6.13;;;;;;;4.50;100.00;98260.94;5112988;28;20201;-57
2024/01/31 03:08:34;;;;;;;6.37;5.73;;;;;;;4.38;100.00;98258.84;5112309;28;20280;-57
2024/01/31 03:11:00;;;;;;;6.93;6.13;;;;;;;4.25;100.00;98263.75;5112472;28;20292;-57
2024/01/31 03:13:27;;;;;;;6.13;5.50;;;;;;;4.35;100.00;98259.00;5112734;28;20201;-57
2024/01/31 03:15:55;;;;;;;6.47;5.83;;;;;;;4.37;100.00;98262.38;5111462;28;20288;-58
2024/01/31 03:18:22;;;;;;;8.20;6.53;;;;;;;4.32;100.00;98264.38;5111832;28;20201;-57
2024/01/31 03:20:54;;;;;;;7.03;6.00;;;;;;;4.33;100.00;98260.81;5112952;28;20204;-57
2024/01/31 03:23:21;;;;;;;7.03;6.33;;;;;;;4.35;100.00;98256.38;5111319;28;20201;-56
2024/01/31 03:25:47;;;;;;;7.13;6.20;;;;;;;4.15;100.00;98251.97;5112673;28;20288;-57
2024/01/31 03:28:14;;;;;;;6.33;5.73;;;;;;;4.13;100.00;98258.19;5111952;28;20208;-57
2024/01/31 03:30:41;;;;;;;9.00;6.20;;;;;;;4.13;100.00;98248.56;5112734;28;20207;-57
2024/01/31 03:33:09;;;;;;;6.93;5.60;;;;;;;4.01;100.00;98251.69;5112411;28;20201;-57
2024/01/31 03:35:35;;;;;;;7.77;6.30;;;;;;;4.05;100.00;98249.78;5112310;28;20583;-58
2024/01/31 03:38:02;;;;;;;8.70;6.30;;;;;;;4.11;100.00;98260.03;5111682;28;20716;-57
2024/01/31 03:40:29;;;;;;;6.40;5.80;;;;;;;4.20;100.00;98264.88;5111609;28;20231;-57
2024/01/31 03:42:56;;;;;;;6.53;5.83;;;;;;;3.99;100.00;98259.63;5112030;28;20292;-57
2024/01/31 03:45:22;;;;;;;6.80;6.10;;;;;;;3.95;100.00;98265.88;5111946;28;20647;-56
2024/01/31 03:47:49;;;;;;;8.57;6.70;;;;;;;3.99;100.00;98272.72;5111405;28;20203;-58
2024/01/31 03:50:17;;;;;;;7.97;5.80;;;;;;;4.01;100.00;98270.88;5111451;28;20197;-57
2024/01/31 03:52:44;;;;;;;7.23;6.13;;;;;;;4.08;100.00;98266.22;5111333;28;20209;-57
2024/01/31 03:55:11;;;;;;;6.53;5.87;;;;;;;4.03;100.00;98275.19;5111635;28;20223;-56
2024/01/31 03:57:37;;;;;;;6.80;5.83;;;;;;;4.04;100.00;98275.13;5111670;28;20270;-57
2024/01/31 04:00:08;;;;;;;7.37;5.97;;;;;;;4.07;100.00;98271.53;5072734;28;1088375;-58
2024/01/31 04:02:35;;;;;;;6.57;5.63;;;;;;;4.10;100.00;98281.88;5112348;27;20202;-57
2024/01/31 04:05:02;;;;;;;7.87;5.70;;;;;;;4.04;100.00;98276.91;5111709;28;20647;-57
2024/01/31 04:07:31;;;;;;;6.93;6.20;;;;;;;4.05;100.00;98282.06;5112614;28;20210;-57
2024/01/31 04:09:57;;;;;;;6.27;5.63;;;;;;;4.05;100.00;98274.22;5112181;28;20606;-57
2024/01/31 04:12:26;;;;;;;6.67;5.83;;;;;;;4.11;100.00;98284.41;5111904;28;20205;-57
2024/01/31 04:14:52;;;;;;;7.30;5.43;;;;;;;4.13;100.00;98281.75;5112400;28;20300;-57
2024/01/31 04:17:20;;;;;;;6.67;5.37;;;;;;;4.14;100.00;98278.22;5112580;28;20296;-57
2024/01/31 04:19:48;;;;;;;9.63;6.00;;;;;;;4.06;100.00;98269.81;5111685;27;20225;-57
2024/01/31 04:22:15;;;;;;;6.80;5.43;;;;;;;4.06;100.00;98275.91;5118238;28;20235;-57
2024/01/31 04:24:43;;;;;;;6.30;5.70;;;;;;;3.92;100.00;98283.50;5115469;28;20197;-57
2024/01/31 04:27:10;;;;;;;7.40;5.37;;;;;;;3.91;100.00;98280.00;5116131;27;20213;-57
2024/01/31 04:29:38;;;;;;;6.00;5.50;;;;;;;4.01;100.00;98285.72;5116912;28;20205;-57
2024/01/31 04:32:06;;;;;;;6.50;5.90;;;;;;;3.88;100.00;98276.66;5116907;28;20292;-56
2024/01/31 04:34:34;;;;;;;8.10;5.87;;;;;;;3.85;100.00;98275.03;5116018;28;20257;-55
2024/01/31 04:37:00;;;;;;;5.63;5.03;;;;;;;3.72;100.00;98268.56;5116540;28;20197;-57
2024/01/31 04:39:27;;;;;;;8.67;6.13;;;;;;;3.65;100.00;98276.75;5112474;28;20240;-57
2024/01/31 04:41:55;;;;;;;6.43;5.83;;;;;;;3.72;100.00;98276.41;5112339;28;20556;-56
2024/01/31 04:44:21;;;;;;;6.37;5.77;;;;;;;3.65;100.00;98279.38;5112654;27;20193;-56
2024/01/31 04:46:49;;;;;;;7.37;6.23;;;;;;;3.71;100.00;98276.50;5112801;28;20288;-57
2024/01/31 04:49:16;;;;;;;7.87;5.87;;;;;;;3.75;100.00;98288.56;5112495;28;20209;-57
2024/01/31 04:51:43;;;;;;;7.63;6.57;;;;;;;3.62;100.00;98288.16;5111672;28;20209;-58
2024/01/31 04:54:10;;;;;;;7.20;6.50;;;;;;;3.53;100.00;98282.47;5111175;28;20319;-57
2024/01/31 04:56:36;;;;;;;7.93;7.13;;;;;;;3.50;100.00;98288.66;5111403;28;20609;-57
2024/01/31 04:59:04;;;;;;;7.87;7.03;;;;;;;3.38;100.00;98283.91;5111401;28;20212;-58
2024/01/31 05:01:31;;;;;;;7.47;6.77;;;;;;;3.40;100.00;98288.16;5110841;28;20242;-57
2024/01/31 05:03:58;;;;;;;9.07;7.47;;;;;;;3.45;100.00;98287.97;5111560;28;20273;-57
2024/01/31 05:06:24;;;;;;;7.73;6.93;;;;;;;3.48;100.00;98280.88;5111666;28;20208;-58
2024/01/31 05:08:52;;;;;;;10.70;7.33;;;;;;;3.44;100.00;98289.75;5110938;28;20219;-57
2024/01/31 05:11:19;;;;;;;8.70;7.50;;;;;;;3.35;100.00;98289.25;5110823;28;20201;-57
2024/01/31 05:13:46;;;;;;;9.00;6.93;;;;;;;3.33;100.00;98291.91;5111221;28;20205;-58
2024/01/31 05:16:13;;;;;;;7.90;6.77;;;;;;;3.37;100.00;98288.28;5111380;28;20216;-57
2024/01/31 05:18:40;;;;;;;8.37;7.57;;;;;;;3.39;100.00;98290.84;5110632;28;20211;-57
2024/01/31 05:21:10;;;;;;;9.33;7.53;;;;;;;3.35;100.00;98295.34;5110812;28;20235;-57
2024/01/31 05:23:37;;;;;;;8.43;7.53;;;;;;;3.33;100.00;98301.53;5111553;28;20686;-57
2024/01/31 05:26:07;;;;;;;10.80;7.70;;;;;;;3.33;100.00;98291.91;5111961;28;20207;-58
2024/01/31 05:28:34;;;;;;;8.73;7.80;;;;;;;3.31;100.00;98298.97;5110907;28;20288;-57
2024/01/31 05:31:01;;;;;;;9.37;7.37;;;;;;;3.28;100.00;98295.63;5111013;28;20193;-59
2024/01/31 05:33:28;;;;;;;9.17;8.23;;;;;;;3.20;100.00;98295.06;5110670;28;20221;-57
2024/01/31 05:35:56;;;;;;;11.13;8.07;;;;;;;3.15;100.00;98299.63;5110645;28;20206;-58
2024/01/31 05:38:22;;;;;;;10.90;8.03;;;;;;;3.20;100.00;98300.28;5110345;28;20395;-57
2024/01/31 05:40:49;;;;;;;9.73;7.90;;;;;;;3.34;100.00;98288.38;5110478;28;20217;-56
2024/01/31 05:43:18;;;;;;;12.70;8.63;;;;;;;3.22;100.00;98291.50;5110365;28;20196;-60
2024/01/31 05:45:43;;;;;;;10.70;8.23;;;;;;;3.25;100.00;98293.13;5110387;28;20197;-58
2024/01/31 05:48:10;;;;;;;10.13;9.07;;;;;;;3.36;100.00;98296.19;5111040;28;20213;-59
2024/01/31 05:50:37;;;;;;;9.07;8.13;;;;;;;3.37;100.00;98301.34;5110523;28;20205;-59
2024/01/31 05:53:05;;;;;;;9.40;8.40;;;;;;;3.41;100.00;98295.09;5111004;28;20201;-59
2024/01/31 05:55:32;;;;;;;10.30;8.93;;;;;;;3.22;100.00;98304.56;5109963;28;20680;-59
2024/01/31 05:57:59;;;;;;;11.40;8.10;;;;;;;3.20;100.00;98305.50;5110902;28;20193;-59
2024/01/31 06:00:25;;;;;;;8.83;8.03;;;;;;;3.22;100.00;98308.94;5110315;28;20352;-60
2024/01/31 06:02:52;;;;;;;10.10;8.10;;;;;;;3.16;100.00;98310.00;5120141;28;20281;-59
2024/01/31 06:05:18;;;;;;;9.37;8.47;;;;;;;3.24;100.00;98323.63;5120469;28;20189;-60
2024/01/31 06:07:46;;;;;;;9.70;8.27;;;;;;;3.18;100.00;98316.03;5122800;28;20297;-59
2024/01/31 06:10:13;;;;;;;9.33;8.37;;;;;;;3.29;100.00;98313.03;5129141;28;20264;-61
2024/01/31 06:12:40;;;;;;;12.50;8.07;;;;;;;3.27;100.00;98304.38;5114420;28;20274;-61
2024/01/31 06:15:08;;;;;;;10.17;8.13;;;;;;;3.30;100.00;98304.25;5110299;28;20205;-61
2024/01/31 06:17:35;;;;;;;10.60;8.50;;;;;;;3.12;100.00;98307.56;5110870;28;20236;-60
2024/01/31 06:20:04;;;;;;;9.77;8.47;;;;;;;3.15;100.00;98312.69;5110412;28;20297;-61
2024/01/31 06:22:31;;;;;;;10.70;8.67;;;;;;;3.14;100.00;98310.97;5111235;28;20296;-61
2024/01/31 06:24:59;;;;;;;10.07;8.77;;;;;;;3.06;100.00;98323.47;5110199;28;20205;-60
2024/01/31 06:27:26;;;;;;;9.43;8.33;;;;;;;2.99;100.00;98323.69;5110481;28;20197;-61
2024/01/31 06:29:53;;;;;;;13.23;8.47;;;;;;;3.08;100.00;98329.50;5109973;28;20194;-61
2024/01/31 06:32:22;;;;;;;11.73;9.03;;;;;;;3.12;100.00;98333.72;5110354;28;20668;-60
2024/01/31 06:34:51;;;;;;;10.67;8.17;;;;;;;3.16;100.00;98330.06;5110316;28;20205;-61
2024/01/31 06:37:17;;;;;;;10.50;9.40;;;;;;;3.07;100.00;98333.88;5110656;28;20246;-61
2024/01/31 06:39:44;;;;;;;11.93;9.13;;;;;;;3.00;100.00;98330.63;5109995;28;20634;-63
2024/01/31 06:42:12;;;;;;;13.07;9.80;;;;;;;2.95;100.00;98336.91;5113273;28;20246;-61
2024/01/31 06:44:39;;;;;;;12.10;8.57;;;;;;;2.93;100.00;98337.00;5113959;28;20211;-61
2024/01/31 06:47:05;;;;;;;10.50;8.60;;;;;;;2.96;100.00;98343.84;5114480;28;20201;-61
2024/01/31 06:49:31;;;;;;;10.10;8.77;;;;;;;3.00;100.00;98343.69;5111615;28;20212;-61
2024/01/31 06:51:58;;;;;;;10.70;8.57;;;;;;;3.07;100.00;98335.63;5111624;28;20233;-61
2024/01/31 06:54:25;;;;;;;9.87;8.30;;;;;;;3.03;100.00;98339.25;5114552;28;20196;-63
2024/01/31 06:56:51;;;;;;;9.70;8.33;;;;;;;3.10;100.00;98341.59;5114130;28;20207;-61
2024/01/31 06:59:19;;;;;;;12.47;9.67;;;;;;;3.08;100.00;98337.34;5114370;28;20194;-62
2024/01/31 07:01:46;;;;;;;10.03;8.87;;;;;;;2.93;100.00;98337.00;5114215;28;20225;-62
2024/01/31 07:04:13;;;;;;;11.10;8.13;;;;;;;2.91;100.00;98345.78;5114697;28;20197;-62
2024/01/31 07:06:39;;;;;;;12.17;9.80;;;;;;;2.89;100.00;98345.84;5114248;28;20199;-62
2024/01/31 07:09:06;;;;;;;10.10;9.00;;;;;;;3.04;100.00;98352.28;5114330;28;20193;-61
2024/01/31 07:11:32;;;;;;;10.87;8.80;;;;;;;3.08;100.00;98355.63;5114974;28;20221;-62
2024/01/31 07:13:59;;;;;;;13.17;9.47;;;;;;;3.14;100.00;98356.25;5116112;28;20197;-62
2024/01/31 07:16:27;;;;;;;12.20;8.97;;;;;;;3.19;100.00;98356.09;5114357;28;20607;-61
2024/01/31 07:18:54;;;;;;;12.37;9.27;;;;;;;3.12;100.00;98359.84;5113835;28;20204;-62
2024/01/31 07:21:25;;;;;;;11.07;9.07;;;;;;;3.10;100.00;98361.66;5114212;28;20213;-61
2024/01/31 07:23:52;;;;;;;10.20;9.07;;;;;;;3.20;100.00;98357.78;5114067;28;20204;-62
2024/01/31 07:26:22;;;;;;;10.83;8.80;;;;;;;3.21;100.00;98359.50;5113968;28;20198;-62
2024/01/31 07:28:48;;;;;;;11.00;8.70;;;;;;;3.29;100.00;98371.41;5115034;28;20205;-61
2024/01/31 07:31:15;;;;;;;12.93;9.53;;;;;;;3.37;100.00;98366.72;5114499;28;20352;-62
2024/01/31 07:33:43;;;;;;;14.37;9.47;;;;;;;3.46;100.00;98376.00;5113705;28;20201;-61
2024/01/31 07:36:09;;;;;;;18.47;13.53;;;;;;;3.47;100.00;98375.09;5114306;28;20193;-61
2024/01/31 07:38:36;;;;;;;12.67;10.73;;;;;;;3.54;100.00;98384.41;5114988;28;20205;-61
2024/01/31 07:41:03;;;;;;;11.10;9.90;;;;;;;3.62;100.00;98376.25;5112905;28;20664;-62
2024/01/31 07:43:30;;;;;;;10.13;8.67;;;;;;;3.63;100.00;98377.97;5113828;28;20197;-62
2024/01/31 07:45:56;;;;;;;12.83;9.43;;;;;;;3.60;100.00;98376.34;5113714;28;20287;-62
2024/01/31 07:48:23;;;;;;;11.77;9.50;;;;;;;3.56;100.00;98377.34;5112263;28;20206;-61
2024/01/31 07:50:51;;;;;;;13.63;8.90;;;;;;;3.62;100.00;98382.34;5113258;28;20624;-62
2024/01/31 07:53:18;;;;;;;10.83;8.73;;;;;;;3.71;100.00;98382.00;5113428;28;20193;-61
2024/01/31 07:55:44;;;;;;;11.40;8.57;;;;;;;3.96;100.00;98395.00;5112918;28;20192;-61
2024/01/31 07:58:11;;;;;;;9.70;8.60;;;;;;;4.11;100.00;98381.28;5113476;28;20193;-61
2024/01/31 08:00:38;;;;;;;17.80;10.30;;;;;;;4.10;100.00;98378.75;5112727;28;21524;-61
2024/01/31 08:03:05;;;;;;;11.40;9.40;;;;;;;4.11;100.00;98375.22;5112555;28;20297;-62
2024/01/31 08:05:31;;;;;;;18.87;14.87;;;;;;;4.22;100.00;98379.09;5112675;28;20201;-61
2024/01/31 08:07:59;;;;;;;11.60;9.33;;;;;;;4.26;100.00;98374.59;5113500;28;20208;-61
2024/01/31 08:10:26;;;;;;;12.03;10.00;;;;;;;4.35;100.00;98369.84;5112564;28;20189;-61
2024/01/31 08:12:53;;;;;;;12.13;9.37;;;;;;;4.47;100.00;98369.31;5113455;28;20200;-61
2024/01/31 08:15:20;;;;;;;12.13;9.40;;;;;;;4.64;100.00;98371.22;5113071;28;20236;-61
2024/01/31 08:17:47;;;;;;;10.47;9.43;;;;;;;4.81;100.00;98368.78;5112062;28;20205;-61
2024/01/31 08:20:14;;;;;;;10.13;9.13;;;;;;;4.90;100.00;98378.84;5113005;28;20212;-61
2024/01/31 08:22:41;;;;;;;14.40;10.23;;;;;;;5.03;100.00;98369.53;5112997;28;20193;-61
2024/01/31 08:25:11;;;;;;;12.23;9.77;;;;;;;5.17;100.00;98375.97;5112364;28;20207;-61
2024/01/31 08:27:38;;;;;;;10.67;9.27;;;;;;;5.28;100.00;98378.97;5113038;28;20672;-61
2024/01/31 08:30:06;;;;;;;22.73;11.50;;;;;;;5.37;100.00;98370.66;5112923;28;20188;-61
2024/01/31 08:32:33;;;;;;;13.47;10.40;;;;;;;5.49;100.00;98362.25;5113232;28;20204;-61
2024/01/31 08:35:00;;;;;;;14.40;9.67;;;;;;;5.55;100.00;98361.97;5112476;28;20288;-60
2024/01/31 08:37:26;;;;;;;12.80;9.67;;;;;;;5.64;100.00;98361.53;5112516;28;20197;-61
2024/01/31 08:39:53;;;;;;;16.10;11.30;;;;;;;5.71;100.00;98362.94;5112178;27;20205;-61
2024/01/31 08:42:21;;;;;;;13.30;10.13;;;;;;;5.79;100.00;98366.06;5112441;28;20224;-61
2024/01/31 08:44:47;;;;;;;13.90;10.10;;;;;;;5.87;100.00;98371.00;5112334;28;20197;-61
2024/01/31 08:47:14;;;;;;;11.33;9.77;;;;;;;5.98;100.00;98361.72;5112679;28;20209;-61
2024/01/31 08:49:40;;;;;;;13.50;9.70;;;;;;;6.12;100.00;98358.41;5112447;27;20205;-61
2024/01/31 08:52:07;;;;;;;15.20;9.73;;;;;;;6.21;100.00;98357.09;5111902;28;20208;-61
2024/01/31 08:54:36;;;;;;;11.77;9.37;;;;;;;6.25;100.00;98358.66;5111839;28;20212;-60
2024/01/31 08:57:03;;;;;;;11.63;10.00;;;;;;;6.37;100.00;98342.31;5114586;28;20193;-62
2024/01/31 08:59:31;;;;;;;10.20;9.20;;;;;;;6.50;100.00;98353.91;5118464;28;20212;-62
2024/01/31 09:01:58;;;;;;;11.17;9.17;;;;;;;6.67;100.00;98348.66;5119398;28;20355;-61
2024/01/31 09:04:25;;;;;;;12.60;9.80;;;;;;;6.64;100.00;98347.94;5116018;28;20284;-62
2024/01/31 09:06:51;;;;;;;10.10;9.20;;;;;;;6.66;100.00;98354.81;5113215;28;20284;-61
2024/01/31 09:09:18;;;;;;;10.93;8.83;;;;;;;6.77;100.00;98342.00;5111974;28;20211;-62
2024/01/31 09:11:44;;;;;;;14.07;9.53;;;;;;;6.90;100.00;98348.34;5112242;28;20190;-62
2024/01/31 09:14:11;;;;;;;12.80;9.27;;;;;;;7.07;100.00;98349.25;5112258;28;20212;-61
2024/01/31 09:16:39;;;;;;;12.17;8.67;;;;;;;7.17;100.00;98343.41;5112709;28;20195;-61
2024/01/31 09:19:05;;;;;;;9.67;8.67;;;;;;;7.25;100.00;98343.03;5113918;28;20197;-62
2024/01/31 09:21:32;;;;;;;12.57;9.73;;;;;;;7.33;100.00;98330.31;5112056;28;20228;-61
2024/01/31 09:23:59;;;;;;;17.43;9.03;;;;;;;7.37;100.00;98334.44;5115326;28;20225;-62
2024/01/31 09:26:25;;;;;;;13.80;8.60;;;;;;;7.46;100.00;98332.19;5111670;28;20201;-61
2024/01/31 09:28:53;;;;;;;14.27;8.83;;;;;;;7.50;100.00;98328.47;5111614;28;20527;-61
2024/01/31 09:31:23;;;;;;;11.73;8.97;;;;;;;7.51;100.00;98332.78;5113897;28;20201;-61
2024/01/31 09:33:51;;;;;;;12.07;8.73;;;;;;;7.53;100.00;98337.97;5113328;28;20201;-61
2024/01/31 09:36:18;;;;;;;16.47;9.10;;;;;;;7.55;100.00;98330.84;5111549;28;20197;-60
2024/01/31 09:38:47;;;;;;;8.83;7.93;;;;;;;7.69;100.00;98324.81;5110679;28;20544;-62
2024/01/31 09:41:14;;;;;;;14.20;9.03;;;;;;;7.68;100.00;98328.41;5110870;28;20240;-61
2024/01/31 09:43:41;;;;;;;12.97;8.83;;;;;;;7.90;100.00;98337.66;5111293;28;20217;-61
2024/01/31 09:46:08;;;;;;;11.47;9.33;;;;;;;8.06;100.00;98321.84;5111306;28;20515;-61
2024/01/31 09:48:35;;;;;;;12.70;9.87;;;;;;;8.36;100.00;98332.47;5111203;28;20228;-61
2024/01/31 09:51:03;;;;;;;11.20;9.70;;;;;;;8.66;100.00;98328.03;5110562;28;20626;-61
2024/01/31 09:53:33;;;;;;;13.50;9.43;;;;;;;8.98;100.00;98329.63;5111303;28;20205;-62
2024/01/31 09:56:01;;;;;;;11.10;8.77;;;;;;;9.10;100.00;98327.19;5110556;28;20193;-61
2024/01/31 09:58:28;;;;;;;11.67;8.90;;;;;;;9.30;100.00;98329.44;5110655;28;20207;-61
2024/01/31 10:00:55;;;;;;;14.57;9.83;;;;;;;9.87;100.00;98324.97;5110666;28;20229;-61
2024/01/31 10:03:21;;;;;;;13.10;9.53;;;;;;;10.44;99.12;98317.72;5111200;28;20204;-61
2024/01/31 10:05:48;;;;;;;12.33;9.70;;;;;;;11.01;96.73;98320.06;5110878;28;20614;-61
2024/01/31 10:08:16;;;;;;;15.23;9.33;;;;;;;10.99;92.68;98313.06;5111260;28;20201;-61
2024/01/31 10:10:43;;;;;;;10.40;8.88;;;;;;;11.27;90.47;98300.56;5110592;28;20197;-61
2024/01/31 10:13:10;;;;;;;8.93;8.02;;;;;;;11.97;85.87;98309.69;5111224;28;20197;-61
2024/01/31 10:15:37;;;;;;;11.98;8.82;;;;;;;11.77;85.21;98304.97;5110485;28;20205;-61
2024/01/31 10:18:05;;;;;;;9.18;8.23;;;;;;;11.97;84.82;98302.56;5111330;28;20193;-61
2024/01/31 10:20:31;;;;;;;9.88;8.07;;;;;;;12.01;84.62;98302.38;5110553;28;20193;-61
2024/01/31 10:22:59;;;;;;;9.50;8.18;;;;;;;12.04;85.73;98296.84;5111030;28;20563;-61
2024/01/31 10:25:28;;;;;;;10.60;8.50;;;;;;;12.34;81.94;98290.13;5109750;28;20211;-60
2024/01/31 10:27:55;;;;;;;9.43;8.25;;;;;;;11.97;83.40;98299.09;5113182;28;20201;-61
2024/01/31 10:30:22;;;;;;;11.40;7.88;;;;;;;11.76;87.07;98288.22;5114645;28;20201;-61
2024/01/31 10:32:48;;;;;;;13.52;8.68;;;;;;;11.48;88.03;98289.31;5114959;28;20205;-61
2024/01/31 10:35:16;;;;;;;9.77;8.77;;;;;;;11.32;86.89;98298.44;5114424;28;20201;-61
2024/01/31 10:37:43;;;;;;;13.80;8.90;;;;;;;11.26;89.09;98289.13;5114893;28;20193;-61
2024/01/31 10:40:10;;;;;;;9.65;8.40;;;;;;;11.45;87.60;98294.81;5113627;28;20197;-61
2024/01/31 10:42:39;;;;;;;9.00;8.20;;;;;;;11.24;88.34;98291.03;5114537;28;20567;-62
2024/01/31 10:45:07;;;;;;;12.82;8.73;;;;;;;11.15;89.07;98289.03;5114073;28;20197;-62
2024/01/31 10:47:33;;;;;;;9.55;8.65;;;;;;;10.95;91.69;98292.19;5114683;28;20209;-62
2024/01/31 10:50:01;;;;;;;10.57;9.18;;;;;;;10.71;93.50;98291.22;5115017;28;20223;-62
2024/01/31 10:52:31;;;;;;;10.70;9.48;;;;;;;10.64;92.03;98282.84;5114493;28;20558;-61
2024/01/31 10:55:01;;;;;;;12.02;8.68;;;;;;;10.35;93.47;98297.16;5113743;28;20717;-61
2024/01/31 10:57:28;;;;;;;9.90;8.90;;;;;;;10.14;93.47;98286.22;5115098;28;20193;-61
2024/01/31 10:59:58;;;;;;;11.70;9.38;;;;;;;10.07;93.43;98278.72;5114564;28;20197;-62
2024/01/31 11:02:29;;;;;;;9.40;8.50;;;;;;;10.14;93.58;98274.75;5116086;28;20568;-60
2024/01/31 11:04:58;;;;;;;10.30;9.20;;;;;;;10.17;96.24;98280.72;5114708;28;20201;-61
2024/01/31 11:07:25;;;;;;;14.03;9.97;;;;;;;10.16;92.34;98283.47;5114558;28;20740;-61
2024/01/31 11:09:52;;;;;;;9.97;8.73;;;;;;;10.35;93.25;98294.53;5119429;28;20213;-61
2024/01/31 11:12:19;;;;;;;9.40;8.43;;;;;;;10.61;90.76;98285.72;5119801;28;20197;-61
2024/01/31 11:14:47;;;;;;;12.73;8.53;;;;;;;10.81;90.24;98271.97;5118603;28;20201;-61
2024/01/31 11:17:22;;;;;;;11.18;9.38;;;;;;;11.04;87.58;98274.84;5114154;28;20229;-62
2024/01/31 11:19:52;;;;;;;8.65;7.75;;;;;;;11.52;87.99;98268.72;5119274;28;20296;-62
2024/01/31 11:22:19;;;;;;;8.68;7.85;;;;;;;11.84;83.87;98272.59;5122049;28;20225;-61
2024/01/31 11:24:46;;;;;;;8.05;7.35;;;;;;;12.67;81.62;98273.47;5118254;28;20223;-61
2024/01/31 11:27:14;;;;;;;8.93;8.02;;;;;;;12.95;78.50;98264.25;5114377;28;20193;-62
2024/01/31 11:29:42;;;;;;;8.27;7.47;;;;;;;13.31;76.10;98252.59;5115579;28;20201;-61